sensor_id;sensor_type;location;lat;lon;timestamp;temperature;humidity
39345;DHT22;25061;51.954;6.996;2023-04-24T04:30:49;8.40;99.90
39345;DHT22;25061;51.954;6.996;2023-04-24T04:33:15;8.40;99.90
39345;DHT22;25061;51.954;6.996;2023-04-24T04:35:41;8.40;99.90
39345;DHT22;25061;51.954;6.996;2023-04-24T04:38:07;8.40;99.90
39345;DHT22;25061;51.954;6.996;2023-04-24T04:40:33;8.40;99.90
39345;DHT22;25061;51.954;6.996;2023-04-24T04:42:59;8.30;99.90
39345;DHT22;25061;51.954;6.996;2023-04-24T04:45:24;8.30;99.90
39345;DHT22;25061;51.954;6.996;2023-04-24T04:47:52;8.30;99.90
39345;DHT22;25061;51.954;6.996;2023-04-24T04:50:18;8.30;99.90
39345;DHT22;25061;51.954;6.996;2023-04-24T04:52:46;8.30;99.90
39345;DHT22;25061;51.954;6.996;2023-04-24T04:55:15;8.30;99.90
39345;DHT22;25061;51.954;6.996;2023-04-24T04:57:42;8.30;99.90
39345;DHT22;25061;51.954;6.996;2023-04-24T05:00:10;8.30;99.90
39345;DHT22;25061;51.954;6.996;2023-04-24T05:02:37;8.30;99.90
39345;DHT22;25061;51.954;6.996;2023-04-24T05:05:02;8.40;99.90
39345;DHT22;25061;51.954;6.996;2023-04-24T05:07:28;8.30;99.90
39345;DHT22;25061;51.954;6.996;2023-04-24T05:09:53;8.30;99.90
39345;DHT22;25061;51.954;6.996;2023-04-24T05:12:19;8.40;99.90
39345;DHT22;25061;51.954;6.996;2023-04-24T05:14:46;8.40;99.90
39345;DHT22;25061;51.954;6.996;2023-04-24T05:17:13;8.40;99.90
39345;DHT22;25061;51.954;6.996;2023-04-24T05:19:39;8.40;99.90
39345;DHT22;25061;51.954;6.996;2023-04-24T05:22:05;8.40;99.90
39345;DHT22;25061;51.954;6.996;2023-04-24T05:24:36;8.50;99.90
39345;DHT22;25061;51.954;6.996;2023-04-24T05:27:05;8.40;99.90
39345;DHT22;25061;51.954;6.996;2023-04-24T05:29:31;8.50;99.90
39345;DHT22;25061;51.954;6.996;2023-04-24T05:31:59;8.50;99.90
39345;DHT22;25061;51.954;6.996;2023-04-24T05:34:26;8.50;99.90
39345;DHT22;25061;51.954;6.996;2023-04-24T05:36:52;8.50;99.90
39345;DHT22;25061;51.954;6.996;2023-04-24T05:39:19;8.60;99.90
39345;DHT22;25061;51.954;6.996;2023-04-24T05:41:46;8.60;99.90
39345;DHT22;25061;51.954;6.996;2023-04-24T05:44:14;8.50;99.90
39345;DHT22;25061;51.954;6.996;2023-04-24T05:46:40;8.60;99.90
39345;DHT22;25061;51.954;6.996;2023-04-24T05:49:06;8.60;99.90
39345;DHT22;25061;51.954;6.996;2023-04-24T05:51:31;8.70;99.90
39345;DHT22;25061;51.954;6.996;2023-04-24T05:53:57;8.70;99.90
39345;DHT22;25061;51.954;6.996;2023-04-24T05:56:23;8.70;99.90
39345;DHT22;25061;51.954;6.996;2023-04-24T05:58:49;8.70;99.90
39345;DHT22;25061;51.954;6.996;2023-04-24T06:01:15;8.70;99.90
39345;DHT22;25061;51.954;6.996;2023-04-24T06:03:41;8.70;99.90
39345;DHT22;25061;51.954;6.996;2023-04-24T06:06:09;8.70;99.90
39345;DHT22;25061;51.954;6.996;2023-04-24T06:08:35;8.70;99.90
39345;DHT22;25061;51.954;6.996;2023-04-24T06:11:01;8.60;99.90
39345;DHT22;25061;51.954;6.996;2023-04-24T06:13:27;8.70;99.90
39345;DHT22;25061;51.954;6.996;2023-04-24T06:15:52;8.70;99.90
39345;DHT22;25061;51.954;6.996;2023-04-24T06:18:18;8.60;99.90
39345;DHT22;25061;51.954;6.996;2023-04-24T06:20:45;8.60;99.90
39345;DHT22;25061;51.954;6.996;2023-04-24T06:23:11;8.70;99.90
39345;DHT22;25061;51.954;6.996;2023-04-24T06:25:37;8.60;99.90
39345;DHT22;25061;51.954;6.996;2023-04-24T06:28:05;8.70;99.90
39345;DHT22;25061;51.954;6.996;2023-04-24T06:30:31;8.70;99.90
39345;DHT22;25061;51.954;6.996;2023-04-24T06:32:57;8.70;99.90
39345;DHT22;25061;51.954;6.996;2023-04-24T06:35:23;8.70;99.90
39345;DHT22;25061;51.954;6.996;2023-04-24T06:37:49;8.80;99.90
39345;DHT22;25061;51.954;6.996;2023-04-24T06:40:15;8.70;99.90
39345;DHT22;25061;51.954;6.996;2023-04-24T06:42:41;8.70;99.90
39345;DHT22;25061;51.954;6.996;2023-04-24T06:45:07;8.60;99.90
39345;DHT22;25061;51.954;6.996;2023-04-24T06:47:34;8.60;99.90
39345;DHT22;25061;51.954;6.996;2023-04-24T06:50:00;8.60;99.90
39345;DHT22;25061;51.954;6.996;2023-04-24T06:52:26;8.60;99.90
39345;DHT22;25061;51.954;6.996;2023-04-24T06:54:52;8.70;99.90
39345;DHT22;25061;51.954;6.996;2023-04-24T06:57:24;8.50;99.90
39345;DHT22;25061;51.954;6.996;2023-04-24T06:59:50;8.60;99.90
39345;DHT22;25061;51.954;6.996;2023-04-24T07:02:16;8.40;99.90
39345;DHT22;25061;51.954;6.996;2023-04-24T07:04:45;8.50;99.90
39345;DHT22;25061;51.954;6.996;2023-04-24T07:07:12;8.50;99.90
39345;DHT22;25061;51.954;6.996;2023-04-24T07:09:43;8.40;99.90
39345;DHT22;25061;51.954;6.996;2023-04-24T07:12:10;8.50;99.90
39345;DHT22;25061;51.954;6.996;2023-04-24T07:14:37;8.50;99.90
39345;DHT22;25061;51.954;6.996;2023-04-24T07:17:07;8.50;99.90
39345;DHT22;25061;51.954;6.996;2023-04-24T07:19:34;8.50;99.90
39345;DHT22;25061;51.954;6.996;2023-04-24T07:22:01;8.60;99.90
39345;DHT22;25061;51.954;6.996;2023-04-24T07:24:26;8.60;99.90
39345;DHT22;25061;51.954;6.996;2023-04-24T07:26:53;8.50;99.90
39345;DHT22;25061;51.954;6.996;2023-04-24T07:29:19;8.50;99.90
39345;DHT22;25061;51.954;6.996;2023-04-24T07:31:47;8.50;99.90
39345;DHT22;25061;51.954;6.996;2023-04-24T07:34:13;8.60;99.90
39345;DHT22;25061;51.954;6.996;2023-04-24T07:36:39;8.60;99.90
39345;DHT22;25061;51.954;6.996;2023-04-24T07:39:06;8.70;99.90
39345;DHT22;25061;51.954;6.996;2023-04-24T07:41:33;8.70;99.90
39345;DHT22;25061;51.954;6.996;2023-04-24T07:43:59;8.60;99.90
39345;DHT22;25061;51.954;6.996;2023-04-24T07:46:30;8.60;99.90
39345;DHT22;25061;51.954;6.996;2023-04-24T07:48:56;8.60;99.90
39345;DHT22;25061;51.954;6.996;2023-04-24T07:51:22;8.70;99.90
39345;DHT22;25061;51.954;6.996;2023-04-24T07:53:49;8.60;99.90
39345;DHT22;25061;51.954;6.996;2023-04-24T07:56:20;8.60;99.90
39345;DHT22;25061;51.954;6.996;2023-04-24T07:58:46;8.70;99.90
39345;DHT22;25061;51.954;6.996;2023-04-24T08:01:11;8.80;99.90
39345;DHT22;25061;51.954;6.996;2023-04-24T08:03:37;8.80;99.90
39345;DHT22;25061;51.954;6.996;2023-04-24T08:06:03;8.80;99.90
39345;DHT22;25061;51.954;6.996;2023-04-24T08:08:29;8.70;99.90
39345;DHT22;25061;51.954;6.996;2023-04-24T08:10:55;8.70;99.90
39345;DHT22;25061;51.954;6.996;2023-04-24T08:13:22;8.60;99.90
39345;DHT22;25061;51.954;6.996;2023-04-24T08:15:50;8.70;99.90
39345;DHT22;25061;51.954;6.996;2023-04-24T08:18:15;8.60;99.90
39345;DHT22;25061;51.954;6.996;2023-04-24T08:21:00;8.70;99.90
39345;DHT22;25061;51.954;6.996;2023-04-24T08:23:27;8.60;99.90
39345;DHT22;25061;51.954;6.996;2023-04-24T08:25:52;8.60;99.90
39345;DHT22;25061;51.954;6.996;2023-04-24T08:28:20;8.60;99.90
39345;DHT22;25061;51.954;6.996;2023-04-24T08:30:46;8.60;99.90
39345;DHT22;25061;51.954;6.996;2023-04-24T08:33:13;8.60;99.90
39345;DHT22;25061;51.954;6.996;2023-04-24T08:35:40;8.50;99.90
39345;DHT22;25061;51.954;6.996;2023-04-24T08:38:06;8.50;99.90
39345;DHT22;25061;51.954;6.996;2023-04-24T08:40:34;8.50;99.90
39345;DHT22;25061;51.954;6.996;2023-04-24T08:43:05;8.40;99.90
39345;DHT22;25061;51.954;6.996;2023-04-24T08:45:32;8.40;99.90
39345;DHT22;25061;51.954;6.996;2023-04-24T08:47:58;8.30;99.90
39345;DHT22;25061;51.954;6.996;2023-04-24T08:50:25;8.30;99.90
39345;DHT22;25061;51.954;6.996;2023-04-24T08:52:51;8.30;99.90
39345;DHT22;25061;51.954;6.996;2023-04-24T08:55:19;8.30;99.90
39345;DHT22;25061;51.954;6.996;2023-04-24T08:57:50;8.50;99.90
39345;DHT22;25061;51.954;6.996;2023-04-24T09:00:17;8.50;99.90
39345;DHT22;25061;51.954;6.996;2023-04-24T09:02:43;8.60;99.90
39345;DHT22;25061;51.954;6.996;2023-04-24T09:05:10;8.50;99.90
39345;DHT22;25061;51.954;6.996;2023-04-24T09:07:39;8.50;99.90
39345;DHT22;25061;51.954;6.996;2023-04-24T09:10:08;8.50;99.90
39345;DHT22;25061;51.954;6.996;2023-04-24T09:12:34;8.50;99.90
39345;DHT22;25061;51.954;6.996;2023-04-24T09:15:02;8.60;99.90
39345;DHT22;25061;51.954;6.996;2023-04-24T09:17:31;8.50;99.90
39345;DHT22;25061;51.954;6.996;2023-04-24T09:19:57;8.40;99.90
39345;DHT22;25061;51.954;6.996;2023-04-24T09:22:23;8.40;99.90
39345;DHT22;25061;51.954;6.996;2023-04-24T09:25:02;8.40;99.90
39345;DHT22;25061;51.954;6.996;2023-04-24T09:27:28;8.50;99.90
39345;DHT22;25061;51.954;6.996;2023-04-24T09:29:55;8.50;99.90
39345;DHT22;25061;51.954;6.996;2023-04-24T09:32:22;8.50;99.90
39345;DHT22;25061;51.954;6.996;2023-04-24T09:34:48;8.50;99.90
39345;DHT22;25061;51.954;6.996;2023-04-24T09:37:29;8.50;99.90
39345;DHT22;25061;51.954;6.996;2023-04-24T09:40:17;8.50;99.90
39345;DHT22;25061;51.954;6.996;2023-04-24T09:42:54;8.60;99.90
39345;DHT22;25061;51.954;6.996;2023-04-24T09:45:27;8.60;99.90
39345;DHT22;25061;51.954;6.996;2023-04-24T09:47:55;8.70;99.90
39345;DHT22;25061;51.954;6.996;2023-04-24T09:50:21;8.60;99.90
39345;DHT22;25061;51.954;6.996;2023-04-24T09:52:56;8.60;99.90
39345;DHT22;25061;51.954;6.996;2023-04-24T09:55:24;8.60;99.90
39345;DHT22;25061;51.954;6.996;2023-04-24T09:57:53;8.50;99.90
39345;DHT22;25061;51.954;6.996;2023-04-24T10:00:27;8.50;99.90
39345;DHT22;25061;51.954;6.996;2023-04-24T10:03:01;8.50;99.90
39345;DHT22;25061;51.954;6.996;2023-04-24T10:05:37;8.50;99.90
39345;DHT22;25061;51.954;6.996;2023-04-24T10:08:08;8.40;99.90
39345;DHT22;25061;51.954;6.996;2023-04-24T10:10:43;8.40;99.90
39345;DHT22;25061;51.954;6.996;2023-04-24T10:13:10;8.40;99.90
39345;DHT22;25061;51.954;6.996;2023-04-24T10:15:37;8.40;99.90
39345;DHT22;25061;51.954;6.996;2023-04-24T10:18:05;8.30;99.90
39345;DHT22;25061;51.954;6.996;2023-04-24T10:20:32;8.30;99.90
39345;DHT22;25061;51.954;6.996;2023-04-24T10:23:01;8.30;99.90
39345;DHT22;25061;51.954;6.996;2023-04-24T10:25:32;8.30;99.90
39345;DHT22;25061;51.954;6.996;2023-04-24T10:27:58;8.30;99.90
39345;DHT22;25061;51.954;6.996;2023-04-24T10:30:29;8.40;99.90
39345;DHT22;25061;51.954;6.996;2023-04-24T10:32:56;8.40;99.90
39345;DHT22;25061;51.954;6.996;2023-04-24T10:35:22;8.30;99.90
39345;DHT22;25061;51.954;6.996;2023-04-24T10:37:54;8.30;99.90
39345;DHT22;25061;51.954;6.996;2023-04-24T10:40:31;8.30;99.90
39345;DHT22;25061;51.954;6.996;2023-04-24T10:42:57;8.30;99.90
39345;DHT22;25061;51.954;6.996;2023-04-24T10:45:24;8.20;99.90
39345;DHT22;25061;51.954;6.996;2023-04-24T10:48:07;8.30;99.90
39345;DHT22;25061;51.954;6.996;2023-04-24T10:50:46;8.30;99.90
39345;DHT22;25061;51.954;6.996;2023-04-24T10:53:20;8.10;99.90
39345;DHT22;25061;51.954;6.996;2023-04-24T10:55:51;8.10;99.90
39345;DHT22;25061;51.954;6.996;2023-04-24T10:58:22;8.10;99.90
39345;DHT22;25061;51.954;6.996;2023-04-24T11:01:02;8.00;99.90
39345;DHT22;25061;51.954;6.996;2023-04-24T11:03:29;8.00;99.90
39345;DHT22;25061;51.954;6.996;2023-04-24T11:08:30;8.10;99.90
39345;DHT22;25061;51.954;6.996;2023-04-24T11:10:59;8.10;99.90
39345;DHT22;25061;51.954;6.996;2023-04-24T11:13:26;8.10;99.90
39345;DHT22;25061;51.954;6.996;2023-04-24T11:16:20;8.10;99.90
39345;DHT22;25061;51.954;6.996;2023-04-24T11:18:52;8.10;99.90
39345;DHT22;25061;51.954;6.996;2023-04-24T11:21:22;8.10;99.90
39345;DHT22;25061;51.954;6.996;2023-04-24T11:23:48;8.20;99.90
39345;DHT22;25061;51.954;6.996;2023-04-24T11:26:22;8.20;99.90
39345;DHT22;25061;51.954;6.996;2023-04-24T11:29:07;8.30;99.90
39345;DHT22;25061;51.954;6.996;2023-04-24T11:31:38;8.10;99.90
39345;DHT22;25061;51.954;6.996;2023-04-24T11:34:14;8.20;99.90
39345;DHT22;25061;51.954;6.996;2023-04-24T11:36:46;8.20;99.90
39345;DHT22;25061;51.954;6.996;2023-04-24T11:39:14;8.20;99.90
39345;DHT22;25061;51.954;6.996;2023-04-24T11:41:40;8.20;99.90
39345;DHT22;25061;51.954;6.996;2023-04-24T11:44:11;8.40;99.90
39345;DHT22;25061;51.954;6.996;2023-04-24T11:46:38;8.50;99.90
39345;DHT22;25061;51.954;6.996;2023-04-24T11:49:05;8.70;99.90
39345;DHT22;25061;51.954;6.996;2023-04-24T11:51:32;8.70;99.90
39345;DHT22;25061;51.954;6.996;2023-04-24T11:53:58;8.80;99.90
39345;DHT22;25061;51.954;6.996;2023-04-24T11:56:30;8.80;99.90
39345;DHT22;25061;51.954;6.996;2023-04-24T11:58:56;8.70;99.90
39345;DHT22;25061;51.954;6.996;2023-04-24T12:01:22;8.70;99.90
39345;DHT22;25061;51.954;6.996;2023-04-24T12:03:49;8.60;99.90
39345;DHT22;25061;51.954;6.996;2023-04-24T12:06:17;8.60;99.90
39345;DHT22;25061;51.954;6.996;2023-04-24T12:08:46;8.50;99.90
39345;DHT22;25061;51.954;6.996;2023-04-24T12:11:15;8.50;99.90
39345;DHT22;25061;51.954;6.996;2023-04-24T12:13:45;8.40;99.90
39345;DHT22;25061;51.954;6.996;2023-04-24T12:16:11;8.30;99.90
39345;DHT22;25061;51.954;6.996;2023-04-24T12:18:45;8.40;99.90
39345;DHT22;25061;51.954;6.996;2023-04-24T12:21:23;8.40;99.90
39345;DHT22;25061;51.954;6.996;2023-04-24T12:23:54;8.40;99.90
39345;DHT22;25061;51.954;6.996;2023-04-24T12:26:20;8.50;99.90
39345;DHT22;25061;51.954;6.996;2023-04-24T12:28:49;8.60;99.90
39345;DHT22;25061;51.954;6.996;2023-04-24T12:31:17;8.70;99.90
39345;DHT22;25061;51.954;6.996;2023-04-24T12:33:43;8.80;99.90
39345;DHT22;25061;51.954;6.996;2023-04-24T12:36:12;8.80;99.90
39345;DHT22;25061;51.954;6.996;2023-04-24T12:38:38;8.90;99.90
39345;DHT22;25061;51.954;6.996;2023-04-24T12:41:11;9.00;99.90
39345;DHT22;25061;51.954;6.996;2023-04-24T12:43:53;9.10;99.90
39345;DHT22;25061;51.954;6.996;2023-04-24T12:46:19;9.10;99.90
39345;DHT22;25061;51.954;6.996;2023-04-24T12:48:45;9.10;99.90
39345;DHT22;25061;51.954;6.996;2023-04-24T12:51:11;9.20;99.90
39345;DHT22;25061;51.954;6.996;2023-04-24T12:53:37;9.20;99.90
39345;DHT22;25061;51.954;6.996;2023-04-24T12:56:02;9.20;99.90
39345;DHT22;25061;51.954;6.996;2023-04-24T12:58:29;9.00;99.90
39345;DHT22;25061;51.954;6.996;2023-04-24T13:00:56;8.90;99.90
39345;DHT22;25061;51.954;6.996;2023-04-24T13:03:21;8.90;99.90
39345;DHT22;25061;51.954;6.996;2023-04-24T13:05:48;8.90;99.90
39345;DHT22;25061;51.954;6.996;2023-04-24T13:08:13;8.90;99.90
39345;DHT22;25061;51.954;6.996;2023-04-24T13:10:39;8.90;99.90
39345;DHT22;25061;51.954;6.996;2023-04-24T13:13:06;8.90;99.90
39345;DHT22;25061;51.954;6.996;2023-04-24T13:15:32;8.80;99.90
39345;DHT22;25061;51.954;6.996;2023-04-24T13:17:58;8.80;99.90
39345;DHT22;25061;51.954;6.996;2023-04-24T13:20:25;8.90;99.90
39345;DHT22;25061;51.954;6.996;2023-04-24T13:22:51;9.00;99.90
39345;DHT22;25061;51.954;6.996;2023-04-24T13:25:18;9.00;99.90
39345;DHT22;25061;51.954;6.996;2023-04-24T13:27:45;9.00;99.90
39345;DHT22;25061;51.954;6.996;2023-04-24T13:30:11;8.90;99.90
39345;DHT22;25061;51.954;6.996;2023-04-24T13:32:43;8.90;99.90
39345;DHT22;25061;51.954;6.996;2023-04-24T13:35:09;8.80;99.90
39345;DHT22;25061;51.954;6.996;2023-04-24T13:37:35;8.80;99.90
39345;DHT22;25061;51.954;6.996;2023-04-24T13:40:01;8.70;99.90
39345;DHT22;25061;51.954;6.996;2023-04-24T13:42:28;8.70;99.90
39345;DHT22;25061;51.954;6.996;2023-04-24T13:44:53;8.80;99.90
39345;DHT22;25061;51.954;6.996;2023-04-24T13:47:19;8.90;99.90
39345;DHT22;25061;51.954;6.996;2023-04-24T13:49:50;8.90;99.90
39345;DHT22;25061;51.954;6.996;2023-04-24T13:52:19;9.00;99.90
39345;DHT22;25061;51.954;6.996;2023-04-24T13:54:45;9.10;99.90
39345;DHT22;25061;51.954;6.996;2023-04-24T13:57:11;9.10;99.90
39345;DHT22;25061;51.954;6.996;2023-04-24T13:59:38;9.10;99.90
39345;DHT22;25061;51.954;6.996;2023-04-24T14:02:04;9.10;99.90
39345;DHT22;25061;51.954;6.996;2023-04-24T14:04:30;9.20;99.90
39345;DHT22;25061;51.954;6.996;2023-04-24T14:06:55;9.30;99.90
39345;DHT22;25061;51.954;6.996;2023-04-24T14:09:22;9.30;99.90
39345;DHT22;25061;51.954;6.996;2023-04-24T14:11:47;9.20;99.90
39345;DHT22;25061;51.954;6.996;2023-04-24T14:14:13;9.10;99.90
39345;DHT22;25061;51.954;6.996;2023-04-24T14:16:41;9.10;99.90
39345;DHT22;25061;51.954;6.996;2023-04-24T14:19:08;9.10;99.90
39345;DHT22;25061;51.954;6.996;2023-04-24T14:21:35;9.00;99.90
39345;DHT22;25061;51.954;6.996;2023-04-24T14:24:06;9.10;99.90
39345;DHT22;25061;51.954;6.996;2023-04-24T14:26:31;9.00;99.90
39345;DHT22;25061;51.954;6.996;2023-04-24T14:28:57;9.10;99.90
39345;DHT22;25061;51.954;6.996;2023-04-24T14:31:24;9.20;99.90
39345;DHT22;25061;51.954;6.996;2023-04-24T14:33:49;9.20;99.90
39345;DHT22;25061;51.954;6.996;2023-04-24T14:36:15;9.30;99.90
39345;DHT22;25061;51.954;6.996;2023-04-24T14:38:41;9.30;99.90
39345;DHT22;25061;51.954;6.996;2023-04-24T14:41:07;9.40;99.90
39345;DHT22;25061;51.954;6.996;2023-04-24T14:43:35;9.40;99.90
39345;DHT22;25061;51.954;6.996;2023-04-24T14:46:04;9.40;99.90
39345;DHT22;25061;51.954;6.996;2023-04-24T14:48:30;9.30;99.90
39345;DHT22;25061;51.954;6.996;2023-04-24T14:50:56;9.30;99.90
39345;DHT22;25061;51.954;6.996;2023-04-24T14:53:21;9.40;99.90
39345;DHT22;25061;51.954;6.996;2023-04-24T14:55:47;9.30;99.90
39345;DHT22;25061;51.954;6.996;2023-04-24T14:58:14;9.20;99.90
39345;DHT22;25061;51.954;6.996;2023-04-24T15:00:39;9.30;99.90
39345;DHT22;25061;51.954;6.996;2023-04-24T15:03:05;9.20;99.90
39345;DHT22;25061;51.954;6.996;2023-04-24T15:05:31;9.10;99.90
39345;DHT22;25061;51.954;6.996;2023-04-24T15:07:56;9.10;99.90
39345;DHT22;25061;51.954;6.996;2023-04-24T15:10:22;8.90;99.90
39345;DHT22;25061;51.954;6.996;2023-04-24T15:12:49;8.80;99.90
39345;DHT22;25061;51.954;6.996;2023-04-24T15:15:15;8.80;99.90
39345;DHT22;25061;51.954;6.996;2023-04-24T15:17:43;8.80;99.90
39345;DHT22;25061;51.954;6.996;2023-04-24T15:20:08;8.70;99.90
39345;DHT22;25061;51.954;6.996;2023-04-24T15:22:35;8.70;99.90
39345;DHT22;25061;51.954;6.996;2023-04-24T15:25:02;8.80;99.90
39345;DHT22;25061;51.954;6.996;2023-04-24T15:27:39;8.80;99.90
39345;DHT22;25061;51.954;6.996;2023-04-24T15:30:06;8.90;99.90
39345;DHT22;25061;51.954;6.996;2023-04-24T15:32:32;9.00;99.90
39345;DHT22;25061;51.954;6.996;2023-04-24T15:34:58;9.10;99.90
39345;DHT22;25061;51.954;6.996;2023-04-24T15:37:23;9.10;99.90
39345;DHT22;25061;51.954;6.996;2023-04-24T15:39:50;9.10;99.90
39345;DHT22;25061;51.954;6.996;2023-04-24T15:42:16;9.20;99.90
39345;DHT22;25061;51.954;6.996;2023-04-24T15:44:43;9.20;99.90
39345;DHT22;25061;51.954;6.996;2023-04-24T15:47:09;9.30;99.90
39345;DHT22;25061;51.954;6.996;2023-04-24T15:49:34;9.40;99.90
39345;DHT22;25061;51.954;6.996;2023-04-24T15:52:00;9.50;99.90
39345;DHT22;25061;51.954;6.996;2023-04-24T15:54:26;9.50;99.90
39345;DHT22;25061;51.954;6.996;2023-04-24T15:56:51;9.50;99.90
39345;DHT22;25061;51.954;6.996;2023-04-24T15:59:18;9.40;99.90
39345;DHT22;25061;51.954;6.996;2023-04-24T16:01:45;9.50;99.90
39345;DHT22;25061;51.954;6.996;2023-04-24T16:04:12;9.60;99.90
39345;DHT22;25061;51.954;6.996;2023-04-24T16:06:37;9.50;99.90
39345;DHT22;25061;51.954;6.996;2023-04-24T16:09:04;9.50;99.90
39345;DHT22;25061;51.954;6.996;2023-04-24T16:11:31;9.40;99.90
39345;DHT22;25061;51.954;6.996;2023-04-24T16:14:01;9.40;99.90
39345;DHT22;25061;51.954;6.996;2023-04-24T16:16:27;9.40;99.90
39345;DHT22;25061;51.954;6.996;2023-04-24T16:18:53;9.30;99.90
39345;DHT22;25061;51.954;6.996;2023-04-24T16:21:19;9.30;99.90
39345;DHT22;25061;51.954;6.996;2023-04-24T16:23:45;9.30;99.90
39345;DHT22;25061;51.954;6.996;2023-04-24T16:26:10;9.30;99.90
39345;DHT22;25061;51.954;6.996;2023-04-24T16:28:36;9.30;99.90
39345;DHT22;25061;51.954;6.996;2023-04-24T16:31:02;9.30;99.90
39345;DHT22;25061;51.954;6.996;2023-04-24T16:33:28;9.20;99.90
39345;DHT22;25061;51.954;6.996;2023-04-24T16:35:54;9.20;99.90
39345;DHT22;25061;51.954;6.996;2023-04-24T16:38:20;9.20;99.90
39345;DHT22;25061;51.954;6.996;2023-04-24T16:40:46;9.20;99.90
39345;DHT22;25061;51.954;6.996;2023-04-24T16:43:12;9.20;99.90
39345;DHT22;25061;51.954;6.996;2023-04-24T16:45:37;9.30;99.90
39345;DHT22;25061;51.954;6.996;2023-04-24T16:48:04;9.30;99.90
39345;DHT22;25061;51.954;6.996;2023-04-24T16:50:30;9.30;99.90
39345;DHT22;25061;51.954;6.996;2023-04-24T16:52:56;9.30;99.90
39345;DHT22;25061;51.954;6.996;2023-04-24T16:55:21;9.30;99.90
39345;DHT22;25061;51.954;6.996;2023-04-24T16:57:52;9.30;99.90
39345;DHT22;25061;51.954;6.996;2023-04-24T17:00:20;9.30;99.90
39345;DHT22;25061;51.954;6.996;2023-04-24T17:02:46;9.30;99.90
39345;DHT22;25061;51.954;6.996;2023-04-24T17:05:14;9.20;99.90
39345;DHT22;25061;51.954;6.996;2023-04-24T17:07:40;9.20;99.90
39345;DHT22;25061;51.954;6.996;2023-04-24T17:10:07;9.20;99.90
39345;DHT22;25061;51.954;6.996;2023-04-24T17:12:37;9.10;99.90
39345;DHT22;25061;51.954;6.996;2023-04-24T17:15:03;9.10;99.90
39345;DHT22;25061;51.954;6.996;2023-04-24T17:17:28;9.10;99.90
39345;DHT22;25061;51.954;6.996;2023-04-24T17:19:55;9.10;99.90
39345;DHT22;25061;51.954;6.996;2023-04-24T17:22:25;9.10;99.90
39345;DHT22;25061;51.954;6.996;2023-04-24T17:24:51;9.10;99.90
39345;DHT22;25061;51.954;6.996;2023-04-24T17:27:17;9.10;99.90
39345;DHT22;25061;51.954;6.996;2023-04-24T17:29:42;9.10;99.90
39345;DHT22;25061;51.954;6.996;2023-04-24T17:32:11;9.00;99.90
39345;DHT22;25061;51.954;6.996;2023-04-24T17:34:38;9.00;99.90
39345;DHT22;25061;51.954;6.996;2023-04-24T17:37:04;9.00;99.90
39345;DHT22;25061;51.954;6.996;2023-04-24T17:39:30;9.10;99.90
39345;DHT22;25061;51.954;6.996;2023-04-24T17:41:59;9.10;99.90
39345;DHT22;25061;51.954;6.996;2023-04-24T17:44:26;9.00;99.90
39345;DHT22;25061;51.954;6.996;2023-04-24T17:46:52;8.90;99.90
39345;DHT22;25061;51.954;6.996;2023-04-24T17:49:17;8.90;99.90
39345;DHT22;25061;51.954;6.996;2023-04-24T17:51:43;8.90;99.90
39345;DHT22;25061;51.954;6.996;2023-04-24T17:54:10;8.80;99.90
39345;DHT22;25061;51.954;6.996;2023-04-24T17:56:36;8.80;99.90
39345;DHT22;25061;51.954;6.996;2023-04-24T17:59:02;8.70;99.90
39345;DHT22;25061;51.954;6.996;2023-04-24T18:01:28;8.60;99.90
39345;DHT22;25061;51.954;6.996;2023-04-24T18:03:53;8.60;99.90
39345;DHT22;25061;51.954;6.996;2023-04-24T18:06:21;8.50;99.90
39345;DHT22;25061;51.954;6.996;2023-04-24T18:08:46;8.50;99.90
39345;DHT22;25061;51.954;6.996;2023-04-24T18:11:12;8.50;99.90
39345;DHT22;25061;51.954;6.996;2023-04-24T18:13:38;8.40;99.90
39345;DHT22;25061;51.954;6.996;2023-04-24T18:16:06;8.40;99.90
39345;DHT22;25061;51.954;6.996;2023-04-24T18:18:32;8.40;99.90
39345;DHT22;25061;51.954;6.996;2023-04-24T18:20:59;8.40;99.90
39345;DHT22;25061;51.954;6.996;2023-04-24T18:23:25;8.30;99.90
39345;DHT22;25061;51.954;6.996;2023-04-24T18:25:51;8.30;99.90
39345;DHT22;25061;51.954;6.996;2023-04-24T18:28:16;8.30;99.90
39345;DHT22;25061;51.954;6.996;2023-04-24T18:30:42;8.30;99.90
39345;DHT22;25061;51.954;6.996;2023-04-24T18:33:11;8.30;99.90
39345;DHT22;25061;51.954;6.996;2023-04-24T18:35:37;8.20;99.90
39345;DHT22;25061;51.954;6.996;2023-04-24T18:38:03;8.20;99.90
39345;DHT22;25061;51.954;6.996;2023-04-24T18:40:28;8.20;99.90
39345;DHT22;25061;51.954;6.996;2023-04-24T18:42:55;8.10;99.90
39345;DHT22;25061;51.954;6.996;2023-04-24T18:45:21;8.10;99.90
39345;DHT22;25061;51.954;6.996;2023-04-24T18:47:47;8.10;99.90
39345;DHT22;25061;51.954;6.996;2023-04-24T18:50:13;8.00;99.90
39345;DHT22;25061;51.954;6.996;2023-04-24T18:52:39;8.00;99.90
39345;DHT22;25061;51.954;6.996;2023-04-24T18:55:06;7.90;99.90
39345;DHT22;25061;51.954;6.996;2023-04-24T18:57:34;7.90;99.90
39345;DHT22;25061;51.954;6.996;2023-04-24T18:59:59;7.80;99.90
39345;DHT22;25061;51.954;6.996;2023-04-24T19:02:25;7.80;99.90
39345;DHT22;25061;51.954;6.996;2023-04-24T19:04:50;7.80;99.90
39345;DHT22;25061;51.954;6.996;2023-04-24T19:07:16;7.70;99.90
39345;DHT22;25061;51.954;6.996;2023-04-24T19:09:44;7.70;99.90
39345;DHT22;25061;51.954;6.996;2023-04-24T19:12:09;7.70;99.90
39345;DHT22;25061;51.954;6.996;2023-04-24T19:14:35;7.60;99.90
39345;DHT22;25061;51.954;6.996;2023-04-24T19:17:01;7.60;99.90
39345;DHT22;25061;51.954;6.996;2023-04-24T19:19:28;7.60;99.90
39345;DHT22;25061;51.954;6.996;2023-04-24T19:21:56;7.50;99.90
39345;DHT22;25061;51.954;6.996;2023-04-24T19:24:23;7.50;99.90
39345;DHT22;25061;51.954;6.996;2023-04-24T19:26:49;7.40;99.90
39345;DHT22;25061;51.954;6.996;2023-04-24T19:29:15;7.40;99.90
39345;DHT22;25061;51.954;6.996;2023-04-24T19:31:41;7.40;99.90
39345;DHT22;25061;51.954;6.996;2023-04-24T19:34:06;7.30;99.90
39345;DHT22;25061;51.954;6.996;2023-04-24T19:36:32;7.30;99.90
39345;DHT22;25061;51.954;6.996;2023-04-24T19:38:58;7.30;99.90
39345;DHT22;25061;51.954;6.996;2023-04-24T19:41:23;7.20;99.90
39345;DHT22;25061;51.954;6.996;2023-04-24T19:43:50;7.20;99.90
39345;DHT22;25061;51.954;6.996;2023-04-24T19:46:15;7.20;99.90
39345;DHT22;25061;51.954;6.996;2023-04-24T19:48:41;7.20;99.90
39345;DHT22;25061;51.954;6.996;2023-04-24T19:51:06;7.20;99.90
39345;DHT22;25061;51.954;6.996;2023-04-24T19:53:32;7.20;99.90
39345;DHT22;25061;51.954;6.996;2023-04-24T19:55:58;7.20;99.90
39345;DHT22;25061;51.954;6.996;2023-04-24T19:58:23;7.10;99.90
39345;DHT22;25061;51.954;6.996;2023-04-24T20:00:49;7.10;99.90
39345;DHT22;25061;51.954;6.996;2023-04-24T20:03:17;7.10;99.90
39345;DHT22;25061;51.954;6.996;2023-04-24T20:05:42;7.00;99.90
39345;DHT22;25061;51.954;6.996;2023-04-24T20:08:08;7.00;99.90
39345;DHT22;25061;51.954;6.996;2023-04-24T20:10:35;7.00;99.90
39345;DHT22;25061;51.954;6.996;2023-04-24T20:13:01;7.00;99.90
39345;DHT22;25061;51.954;6.996;2023-04-24T20:15:27;7.00;99.90
39345;DHT22;25061;51.954;6.996;2023-04-24T20:17:53;7.00;99.90